Time;durP1;ratioP1;P1;durP2;ratioP2;P2;SDS_P1;SDS_P2;PMS_P1;PMS_P2;Temp;Humidity;BMP_temperature;BMP_pressure;BME280_temperature;BME280_humidity;BME280_pressure;Samples;Min_cycle;Max_cycle;Signal;HPM_P1;HPM_P2
2023/01/09 00:01:57;;;;;;;4.90;4.50;;;8.00;99.90;;;;;;4994330;28;20736;-73
2023/01/09 00:04:22;;;;;;;4.03;3.63;;;8.00;99.90;;;;;;4994667;28;20206;-74
2023/01/09 00:06:52;;;;;;;5.03;4.53;;;8.00;99.90;;;;;;4994751;28;20193;-73
2023/01/09 00:09:22;;;;;;;4.07;3.67;;;8.00;99.90;;;;;;4998919;28;20222;-73
2023/01/09 00:11:48;;;;;;;4.10;3.70;;;8.00;99.90;;;;;;4997933;28;20461;-73
2023/01/09 00:14:15;;;;;;;3.83;3.43;;;8.00;99.90;;;;;;4995722;28;20429;-73
2023/01/09 00:16:40;;;;;;;4.43;4.03;;;8.00;99.90;;;;;;4993468;28;20464;-73
2023/01/09 00:19:06;;;;;;;4.27;3.87;;;8.00;99.90;;;;;;4994720;28;20982;-73
2023/01/09 00:21:31;;;;;;;3.93;3.30;;;8.00;99.90;;;;;;4976955;28;20311;-73
2023/01/09 00:23:57;;;;;;;4.37;3.30;;;8.00;99.90;;;;;;4994371;28;20272;-73
2023/01/09 00:26:22;;;;;;;3.40;3.10;;;8.00;99.90;;;;;;4994276;28;20276;-74
2023/01/09 00:28:50;;;;;;;4.10;3.70;;;8.00;99.90;;;;;;4994424;28;20245;-74
2023/01/09 00:31:17;;;;;;;3.53;3.23;;;8.00;99.90;;;;;;4994004;28;20214;-73
2023/01/09 00:33:55;;;;;;;3.87;3.57;;;8.00;99.90;;;;;;4993990;28;20520;-74
2023/01/09 00:36:20;;;;;;;3.30;3.00;;;8.00;99.90;;;;;;4993939;28;20459;-74
2023/01/09 00:38:46;;;;;;;3.63;3.00;;;7.90;99.90;;;;;;4993770;28;20431;-74
2023/01/09 00:41:17;;;;;;;6.33;3.10;;;7.90;99.90;;;;;;4993638;28;20195;-73
2023/01/09 00:43:52;;;;;;;7.73;2.70;;;7.90;99.90;;;;;;4993737;28;20730;-73
2023/01/09 00:46:20;;;;;;;2.73;2.33;;;7.90;99.90;;;;;;4994003;28;20422;-74
2023/01/09 00:48:47;;;;;;;2.70;2.50;;;7.90;99.90;;;;;;4993745;28;20471;-74
2023/01/09 00:51:13;;;;;;;1.97;1.77;;;7.90;99.90;;;;;;4993540;28;20447;-73
2023/01/09 00:53:41;;;;;;;2.83;1.67;;;8.00;99.90;;;;;;4993684;28;20438;-73
2023/01/09 00:56:12;;;;;;;3.47;1.90;;;8.00;99.90;;;;;;4993658;28;20416;-73
2023/01/09 00:58:37;;;;;;;1.70;1.60;;;8.00;99.90;;;;;;4993735;28;20436;-74
2023/01/09 01:01:04;;;;;;;1.30;1.20;;;8.00;99.90;;;;;;4993556;28;20433;-73
2023/01/09 01:03:29;;;;;;;1.57;1.47;;;8.00;99.90;;;;;;4993437;28;20187;-73
2023/01/09 01:08:39;;;;;;;1.20;1.10;;;8.00;99.90;;;;;;4993469;28;20254;-73
2023/01/09 01:11:11;;;;;;;1.50;1.40;;;8.00;99.90;;;;;;4993226;28;20435;-72
2023/01/09 01:13:38;;;;;;;1.67;1.40;;;8.00;99.90;;;;;;4993387;28;20588;-73
2023/01/09 01:16:05;;;;;;;3.37;1.47;;;8.00;99.90;;;;;;4993437;28;20844;-73
2023/01/09 01:18:31;;;;;;;1.50;1.00;;;8.00;99.90;;;;;;4991113;28;20463;-74
2023/01/09 01:20:57;;;;;;;1.20;0.93;;;8.00;99.90;;;;;;4993446;28;20442;-73
2023/01/09 01:23:22;;;;;;;1.17;0.90;;;8.00;99.90;;;;;;4993161;28;20893;-74
2023/01/09 01:25:48;;;;;;;0.70;0.70;;;8.00;99.90;;;;;;4993259;28;20195;-73
2023/01/09 01:28:14;;;;;;;2.37;0.70;;;8.00;99.90;;;;;;4992170;28;20183;-74
2023/01/09 01:30:41;;;;;;;0.97;0.80;;;8.10;99.90;;;;;;4993057;28;20219;-74
2023/01/09 01:33:08;;;;;;;3.20;0.80;;;8.10;99.90;;;;;;4974847;28;20569;-73
2023/01/09 01:35:34;;;;;;;1.67;0.70;;;8.10;99.90;;;;;;4975791;28;20790;-73
2023/01/09 01:38:00;;;;;;;1.63;0.87;;;8.00;99.90;;;;;;4992686;28;20455;-73
2023/01/09 01:40:25;;;;;;;1.13;0.70;;;8.00;99.90;;;;;;4992829;28;20668;-73
2023/01/09 01:42:53;;;;;;;1.00;0.60;;;8.00;99.90;;;;;;4992615;28;20273;-73
2023/01/09 01:45:25;;;;;;;1.00;0.63;;;8.00;99.90;;;;;;4992593;28;20195;-73
2023/01/09 01:47:53;;;;;;;2.37;0.80;;;8.00;99.90;;;;;;4992672;28;20403;-73
2023/01/09 01:50:23;;;;;;;1.20;0.60;;;8.00;99.90;;;;;;4992509;28;20487;-73
2023/01/09 01:52:58;;;;;;;1.00;0.60;;;8.00;99.90;;;;;;4992501;28;20816;-73
2023/01/09 01:55:24;;;;;;;0.87;0.60;;;8.00;99.90;;;;;;4992701;28;20943;-73
2023/01/09 01:57:54;;;;;;;0.60;0.57;;;7.90;99.90;;;;;;4992502;28;20421;-73
2023/01/09 03:30:56;;;;;;;0.87;0.50;;;7.90;99.90;;;;;;5954665;23;20375;-72
2023/01/09 03:33:22;;;;;;;1.63;0.40;;;7.90;99.90;;;;;;5005443;28;20483;-75
2023/01/09 03:35:47;;;;;;;0.40;0.40;;;7.80;99.90;;;;;;4994028;28;20207;-74
2023/01/09 03:38:13;;;;;;;0.50;0.47;;;7.80;99.90;;;;;;5008401;28;20184;-74
2023/01/09 03:40:42;;;;;;;2.00;0.40;;;7.70;99.90;;;;;;5011142;28;20211;-75
2023/01/09 03:43:07;;;;;;;0.60;0.40;;;7.70;99.90;;;;;;5010886;28;20178;-74
2023/01/09 03:45:33;;;;;;;0.50;0.40;;;7.70;99.90;;;;;;5010978;28;20390;-74
2023/01/09 03:47:58;;;;;;;0.50;0.50;;;7.70;99.90;;;;;;5010832;28;20184;-75
2023/01/09 03:50:24;;;;;;;0.97;0.40;;;7.70;99.90;;;;;;5011183;28;20217;-75
2023/01/09 03:52:49;;;;;;;1.37;0.40;;;7.60;99.90;;;;;;5014203;28;20714;-74
2023/01/09 03:55:15;;;;;;;1.30;0.77;;;7.60;99.90;;;;;;5014559;28;20229;-75
2023/01/09 03:57:40;;;;;;;0.40;0.40;;;7.60;99.90;;;;;;5014472;28;20189;-74
2023/01/09 04:00:07;;;;;;;0.40;0.40;;;7.60;99.90;;;;;;5014508;28;20207;-75
2023/01/09 04:02:32;;;;;;;1.53;0.30;;;7.50;99.90;;;;;;5013958;28;20222;-74
2023/01/09 04:04:58;;;;;;;0.40;0.37;;;7.50;99.90;;;;;;5014667;28;20771;-73
2023/01/09 04:07:23;;;;;;;0.70;0.30;;;7.50;99.90;;;;;;5014197;28;20711;-73
2023/01/09 04:09:49;;;;;;;0.33;0.30;;;7.50;99.90;;;;;;5014211;28;20302;-75
2023/01/09 04:12:14;;;;;;;0.40;0.40;;;7.40;99.90;;;;;;5013847;28;20195;-74
2023/01/09 04:14:40;;;;;;;1.10;0.30;;;7.30;99.90;;;;;;5014279;28;20263;-72
2023/01/09 04:17:05;;;;;;;0.40;0.30;;;7.20;99.90;;;;;;4996743;28;20674;-72
2023/01/09 04:19:31;;;;;;;0.30;0.30;;;7.20;99.90;;;;;;5014069;28;20587;-72
2023/01/09 04:21:56;;;;;;;0.30;0.30;;;7.10;99.90;;;;;;5014150;28;20219;-72
2023/01/09 04:24:22;;;;;;;0.30;0.30;;;6.90;99.90;;;;;;5015376;28;20247;-73
2023/01/09 04:26:47;;;;;;;0.60;0.30;;;6.90;99.90;;;;;;5017393;28;20188;-73
2023/01/09 04:29:13;;;;;;;0.40;0.30;;;6.80;99.90;;;;;;5015928;28;20262;-73
2023/01/09 04:31:38;;;;;;;0.30;0.30;;;6.80;99.90;;;;;;5013311;28;20271;-73
2023/01/09 04:34:04;;;;;;;2.10;0.40;;;6.70;99.90;;;;;;5013823;28;20631;-73
2023/01/09 04:36:29;;;;;;;0.47;0.40;;;6.70;99.90;;;;;;5013460;28;20191;-73
2023/01/09 04:38:55;;;;;;;0.40;0.40;;;6.60;99.90;;;;;;5013886;28;20183;-73
2023/01/09 04:44:04;;;;;;;2.60;0.40;;;6.60;99.90;;;;;;5013774;28;20222;-72
2023/01/09 04:46:30;;;;;;;0.50;0.40;;;6.50;99.90;;;;;;5013432;28;20483;-72
2023/01/09 04:48:55;;;;;;;1.10;0.33;;;6.50;99.90;;;;;;5013638;28;20219;-72
2023/01/09 04:51:21;;;;;;;0.50;0.40;;;6.40;99.90;;;;;;5013154;28;20234;-73
2023/01/09 04:53:46;;;;;;;3.20;1.00;;;6.40;99.90;;;;;;5013272;28;20318;-72
2023/01/09 04:56:12;;;;;;;0.40;0.40;;;6.40;99.90;;;;;;5013429;28;20192;-72
2023/01/09 04:58:37;;;;;;;0.40;0.40;;;6.40;99.90;;;;;;5013227;28;20633;-73
2023/01/09 05:01:03;;;;;;;0.40;0.30;;;6.40;99.90;;;;;;5013341;28;20214;-71
2023/01/09 05:03:28;;;;;;;0.40;0.40;;;6.40;99.90;;;;;;5012392;28;20177;-72
2023/01/09 05:05:54;;;;;;;4.10;0.40;;;6.40;99.90;;;;;;5013174;28;20189;-72
2023/01/09 05:08:19;;;;;;;0.97;0.50;;;6.40;99.90;;;;;;5012800;28;20609;-73
2023/01/09 05:10:44;;;;;;;0.30;0.30;;;6.40;99.90;;;;;;5013425;28;20189;-72
2023/01/09 05:13:10;;;;;;;0.60;0.40;;;6.40;99.90;;;;;;5013052;28;20685;-73
2023/01/09 05:15:35;;;;;;;0.83;0.50;;;6.40;99.90;;;;;;5013294;28;20181;-73
2023/01/09 05:18:01;;;;;;;0.50;0.40;;;6.40;99.90;;;;;;5013451;28;20182;-73
2023/01/09 05:20:26;;;;;;;1.23;0.40;;;6.40;99.90;;;;;;5012652;28;20188;-73
2023/01/09 05:22:52;;;;;;;0.80;0.40;;;6.40;99.90;;;;;;5012748;28;20666;-73
2023/01/09 05:25:17;;;;;;;0.70;0.40;;;6.40;99.90;;;;;;5012813;28;20196;-74
2023/01/09 05:27:45;;;;;;;1.93;0.50;;;6.40;99.90;;;;;;5012985;28;20556;-74
2023/01/09 05:30:11;;;;;;;0.40;0.40;;;6.30;99.90;;;;;;5012641;28;20234;-74
2023/01/09 05:32:37;;;;;;;0.80;0.40;;;6.30;99.90;;;;;;5012683;28;20974;-74
2023/01/09 05:35:03;;;;;;;0.70;0.50;;;6.40;99.90;;;;;;5012924;28;20390;-74
2023/01/09 05:37:28;;;;;;;0.70;0.67;;;6.30;99.90;;;;;;5012482;28;20184;-74
2023/01/09 05:39:54;;;;;;;0.63;0.50;;;6.30;99.90;;;;;;5012513;28;20194;-74
2023/01/09 05:42:19;;;;;;;0.77;0.40;;;6.30;99.90;;;;;;5012192;28;20202;-73
2023/01/09 05:44:45;;;;;;;0.40;0.40;;;6.20;99.90;;;;;;5012686;28;20250;-73
2023/01/09 05:47:10;;;;;;;2.90;0.50;;;6.20;99.90;;;;;;5013446;28;20180;-73
2023/01/09 05:49:35;;;;;;;0.80;0.47;;;6.10;99.90;;;;;;5014011;28;20264;-74
2023/01/09 05:52:01;;;;;;;1.67;0.50;;;6.10;99.90;;;;;;5012278;28;20201;-73
2023/01/09 05:54:27;;;;;;;1.67;0.50;;;6.10;99.90;;;;;;5014046;28;20606;-73
2023/01/09 05:56:52;;;;;;;6.77;0.73;;;6.00;99.90;;;;;;5013653;28;20180;-74
2023/01/09 05:59:18;;;;;;;2.40;0.50;;;6.00;99.90;;;;;;5012353;28;20601;-73
2023/01/09 06:01:43;;;;;;;2.07;0.50;;;5.90;99.90;;;;;;5013988;28;20246;-73
2023/01/09 06:04:09;;;;;;;1.30;0.47;;;5.90;99.90;;;;;;5012484;28;20436;-74
2023/01/09 06:06:35;;;;;;;0.50;0.50;;;5.90;99.90;;;;;;5011959;28;20181;-74
2023/01/09 06:09:02;;;;;;;0.43;0.43;;;5.90;99.90;;;;;;5011992;28;20675;-74
2023/01/09 06:11:27;;;;;;;0.83;0.50;;;5.90;99.90;;;;;;5012028;28;20586;-73
2023/01/09 06:13:53;;;;;;;0.87;0.53;;;5.80;99.90;;;;;;5011677;28;20406;-73
2023/01/09 06:16:19;;;;;;;0.40;0.40;;;5.80;99.90;;;;;;5011549;28;20176;-74
2023/01/09 06:18:44;;;;;;;1.60;0.43;;;5.70;99.90;;;;;;5011601;28;20189;-73
2023/01/09 06:21:10;;;;;;;0.70;0.50;;;5.70;99.90;;;;;;5011466;28;20203;-73
2023/01/09 06:23:35;;;;;;;3.97;0.90;;;5.70;99.90;;;;;;5006722;28;20195;-71
2023/01/09 06:26:01;;;;;;;0.60;0.60;;;5.60;99.90;;;;;;5001562;28;20198;-74
2023/01/09 06:28:26;;;;;;;2.53;0.57;;;5.60;99.90;;;;;;5010974;28;20175;-73
2023/01/09 06:30:52;;;;;;;0.60;0.53;;;5.60;99.90;;;;;;4992733;28;20562;-73
2023/01/09 06:33:18;;;;;;;1.50;0.60;;;5.60;99.90;;;;;;5010165;28;20192;-73
2023/01/09 06:35:43;;;;;;;2.10;0.60;;;5.50;99.90;;;;;;5010492;28;20185;-73
2023/01/09 06:38:09;;;;;;;7.33;0.83;;;5.40;99.90;;;;;;5011590;28;20719;-73
2023/01/09 06:40:34;;;;;;;0.60;0.60;;;5.30;99.90;;;;;;5011498;28;20685;-71
2023/01/09 06:42:59;;;;;;;0.90;0.50;;;5.20;99.90;;;;;;5011498;28;20189;-73
2023/01/09 06:45:25;;;;;;;0.77;0.50;;;5.20;99.90;;;;;;5011547;28;20264;-73
2023/01/09 06:47:50;;;;;;;1.07;0.50;;;5.20;99.90;;;;;;5011822;28;20176;-73
2023/01/09 06:50:16;;;;;;;1.73;0.60;;;5.10;99.90;;;;;;5011464;28;20218;-73
2023/01/09 06:52:42;;;;;;;1.13;0.60;;;5.10;99.90;;;;;;5011335;28;20186;-74
2023/01/09 06:55:08;;;;;;;3.70;0.57;;;5.10;99.90;;;;;;5011530;28;20422;-73
2023/01/09 06:57:33;;;;;;;0.93;0.60;;;5.10;99.90;;;;;;5011452;28;20241;-73
2023/01/09 06:59:59;;;;;;;4.33;0.60;;;5.20;99.90;;;;;;5011601;28;20472;-74
2023/01/09 07:02:24;;;;;;;3.50;0.50;;;5.30;99.90;;;;;;5011302;28;20213;-73
2023/01/09 07:04:50;;;;;;;4.10;0.60;;;5.30;99.90;;;;;;5011978;28;20516;-73
2023/01/09 07:07:17;;;;;;;1.37;0.63;;;5.40;99.90;;;;;;5012599;28;20323;-73
2023/01/09 07:09:42;;;;;;;0.80;0.60;;;5.40;99.90;;;;;;5011580;28;20318;-72
2023/01/09 07:12:08;;;;;;;1.27;0.50;;;5.40;99.90;;;;;;5011313;28;20521;-72
2023/01/09 07:14:33;;;;;;;1.90;0.70;;;5.50;99.90;;;;;;5011529;28;20260;-72
2023/01/09 07:16:59;;;;;;;0.50;0.50;;;5.50;99.90;;;;;;5011813;28;20180;-72
2023/01/09 07:19:24;;;;;;;0.77;0.50;;;5.50;99.90;;;;;;5011444;28;20175;-72
2023/01/09 07:21:50;;;;;;;3.00;0.90;;;5.50;99.90;;;;;;5011532;28;20195;-71
2023/01/09 07:24:15;;;;;;;0.70;0.50;;;5.60;99.90;;;;;;5011344;28;20263;-71
2023/01/09 07:26:41;;;;;;;2.00;0.53;;;5.60;99.90;;;;;;5013437;28;20322;-71
2023/01/09 07:29:06;;;;;;;1.03;0.60;;;5.60;99.90;;;;;;5004161;28;20215;-71
2023/01/09 07:31:33;;;;;;;1.77;0.80;;;5.60;99.90;;;;;;4995069;28;20503;-71
2023/01/09 07:33:58;;;;;;;1.70;0.70;;;5.60;99.90;;;;;;4995331;28;20179;-72
2023/01/09 07:36:23;;;;;;;3.17;0.80;;;5.60;99.90;;;;;;4977713;28;21005;-71
2023/01/09 07:38:49;;;;;;;2.70;0.60;;;5.70;99.90;;;;;;4995462;28;20185;-71
2023/01/09 07:41:14;;;;;;;2.07;0.57;;;5.70;99.90;;;;;;4994980;28;20285;-70
2023/01/09 07:43:40;;;;;;;1.53;0.50;;;5.70;99.90;;;;;;4995179;28;20458;-71
2023/01/09 07:46:06;;;;;;;5.13;0.90;;;5.70;99.90;;;;;;4995199;28;20637;-71
2023/01/09 07:48:32;;;;;;;3.57;0.60;;;5.80;99.90;;;;;;4994811;28;20196;-71
2023/01/09 07:50:57;;;;;;;1.17;0.50;;;5.80;99.90;;;;;;4994876;28;20248;-71
2023/01/09 07:53:23;;;;;;;3.00;0.70;;;5.80;99.90;;;;;;4995143;28;20455;-71
2023/01/09 07:55:48;;;;;;;6.97;0.93;;;5.80;99.90;;;;;;4995277;28;20248;-71
2023/01/09 07:58:14;;;;;;;3.53;0.70;;;5.80;99.90;;;;;;4995426;28;20227;-71
2023/01/09 08:00:39;;;;;;;5.63;0.70;;;5.80;99.90;;;;;;4995559;28;20229;-71
2023/01/09 08:03:05;;;;;;;2.90;0.77;;;5.80;99.90;;;;;;4995678;28;20311;-71
2023/01/09 08:05:30;;;;;;;4.20;0.90;;;5.90;99.90;;;;;;4994750;28;20184;-71
2023/01/09 08:07:56;;;;;;;1.00;0.70;;;5.90;99.90;;;;;;4995225;28;20181;-71
2023/01/09 08:10:21;;;;;;;2.83;0.50;;;6.00;99.90;;;;;;4994643;28;20312;-71
2023/01/09 08:12:47;;;;;;;4.57;0.87;;;6.00;99.90;;;;;;4994472;28;20198;-71
2023/01/09 08:15:14;;;;;;;1.43;0.97;;;6.00;99.90;;;;;;4998337;28;20185;-71
2023/01/09 08:17:41;;;;;;;1.20;0.60;;;6.10;99.90;;;;;;5003797;28;20503;-71
2023/01/09 08:20:09;;;;;;;1.30;0.60;;;6.20;99.90;;;;;;5004008;28;20433;-71
2023/01/09 08:22:35;;;;;;;1.63;0.50;;;6.40;99.90;;;;;;5001823;28;20654;-71
2023/01/09 08:25:00;;;;;;;2.40;0.50;;;6.60;99.90;;;;;;5005172;28;20985;-72
2023/01/09 08:27:26;;;;;;;1.37;0.63;;;6.70;99.90;;;;;;5002584;28;20209;-71
2023/01/09 08:29:51;;;;;;;2.80;0.60;;;6.80;99.90;;;;;;5004163;28;20203;-71
2023/01/09 08:32:17;;;;;;;1.00;0.60;;;6.80;99.90;;;;;;4986535;28;20218;-71
2023/01/09 08:34:42;;;;;;;1.87;0.50;;;6.90;99.90;;;;;;4999690;28;20562;-72
2023/01/09 08:37:08;;;;;;;1.67;0.70;;;6.80;99.90;;;;;;4994389;28;20689;-72
2023/01/09 08:39:34;;;;;;;2.37;0.60;;;6.70;99.90;;;;;;4993884;28;20192;-71
2023/01/09 08:47:32;;;;;;;0.93;0.73;;;6.80;99.90;;;;;;4994632;28;20443;-71
2023/01/09 08:49:58;;;;;;;6.93;0.60;;;6.80;99.90;;;;;;4976686;28;20544;-71
2023/01/09 08:52:23;;;;;;;2.70;0.60;;;6.90;99.90;;;;;;4993935;28;20433;-71
2023/01/09 08:54:48;;;;;;;1.63;0.60;;;6.90;99.90;;;;;;4993635;28;20555;-70
2023/01/09 08:57:14;;;;;;;3.03;0.60;;;6.90;99.90;;;;;;4993577;28;20214;-70
2023/01/09 08:59:39;;;;;;;3.53;0.80;;;6.90;99.90;;;;;;4993802;28;20613;-71
2023/01/09 09:02:05;;;;;;;3.13;0.90;;;7.00;99.90;;;;;;4994550;28;20205;-70
2023/01/09 09:04:31;;;;;;;3.80;0.70;;;7.00;99.90;;;;;;4994787;28;20209;-71
2023/01/09 09:06:56;;;;;;;5.70;0.90;;;6.90;99.90;;;;;;4994530;28;20269;-71
2023/01/09 09:09:22;;;;;;;4.10;0.50;;;7.10;99.90;;;;;;4994345;28;20212;-71
2023/01/09 09:11:47;;;;;;;1.57;0.53;;;7.10;99.90;;;;;;4994424;28;20213;-71
2023/01/09 09:16:57;;;;;;;1.23;0.67;;;7.30;99.90;;;;;;4994131;28;20192;-71
2023/01/09 09:19:22;;;;;;;1.93;0.73;;;7.50;99.90;;;;;;4993514;28;20422;-71
2023/01/09 09:21:48;;;;;;;3.23;0.77;;;8.00;99.90;;;;;;4993527;28;20219;-72
2023/01/09 09:24:13;;;;;;;2.57;0.73;;;8.60;99.90;;;;;;4993642;28;20669;-72
2023/01/09 09:26:39;;;;;;;4.73;0.97;;;9.20;99.90;;;;;;4993452;28;20263;-72
2023/01/09 09:29:04;;;;;;;4.20;0.87;;;9.50;99.90;;;;;;4993302;28;20212;-71
2023/01/09 09:31:30;;;;;;;4.63;0.63;;;9.80;99.90;;;;;;4993035;28;20222;-71
2023/01/09 09:33:56;;;;;;;2.70;0.80;;;10.00;99.90;;;;;;4993480;28;20189;-71
2023/01/09 09:36:21;;;;;;;1.03;0.53;;;9.90;99.90;;;;;;4993242;28;20170;-72
2023/01/09 09:38:46;;;;;;;1.77;0.50;;;10.00;99.90;;;;;;4993657;28;20551;-71
2023/01/09 09:45:28;;;;;;;2.93;0.73;;;10.50;99.90;;;;;;4994478;28;20226;-71
2023/01/09 09:48:39;;;;;;;0.60;0.50;;;10.80;99.90;;;;;;4993065;28;20410;-71
2023/01/09 09:51:11;;;;;;;1.33;0.60;;;11.10;99.90;;;;;;4914120;29;20450;-70
2023/01/09 09:53:58;;;;;;;3.20;0.87;;;11.40;99.90;;;;;;4980074;28;20422;-72
2023/01/09 09:56:25;;;;;;;2.57;0.50;;;11.20;99.90;;;;;;4992688;28;20773;-71
2023/01/09 09:58:58;;;;;;;2.20;0.50;;;10.80;99.90;;;;;;4992721;28;20411;-71
2023/01/09 10:01:43;;;;;;;1.30;0.60;;;10.30;99.90;;;;;;4992251;28;20479;-71
2023/01/09 10:04:16;;;;;;;2.13;0.60;;;10.00;99.90;;;;;;4992928;28;20420;-71
2023/01/09 10:06:44;;;;;;;1.57;0.80;;;9.60;99.90;;;;;;4992592;28;20831;-71
2023/01/09 10:09:40;;;;;;;2.00;0.73;;;9.30;99.90;;;;;;4992514;28;20552;-71
2023/01/09 10:12:26;;;;;;;2.67;0.60;;;9.10;99.90;;;;;;4992239;28;20944;-70
2023/01/09 10:14:56;;;;;;;6.90;0.90;;;9.20;99.90;;;;;;4992496;28;20404;-71
2023/01/09 10:17:37;;;;;;;2.20;0.80;;;9.40;99.90;;;;;;4992537;28;20412;-71
2023/01/09 10:20:41;;;;;;;1.40;0.57;;;9.80;99.90;;;;;;4992455;28;20408;-71
2023/01/09 10:23:21;;;;;;;1.23;0.60;;;10.00;99.90;;;;;;4992216;28;20417;-71
2023/01/09 10:25:59;;;;;;;1.87;0.60;;;9.80;99.90;;;;;;4992305;28;20781;-71
2023/01/09 10:28:51;;;;;;;5.70;0.90;;;9.70;99.90;;;;;;4992105;28;20421;-70
2023/01/09 10:31:29;;;;;;;7.10;1.30;;;9.60;99.90;;;;;;4992018;28;20552;-71
2023/01/09 10:34:27;;;;;;;1.50;0.60;;;9.30;99.90;;;;;;4992497;28;20502;-70
2023/01/09 10:37:27;;;;;;;3.53;0.90;;;9.10;99.90;;;;;;4992515;28;20409;-70
2023/01/09 10:39:56;;;;;;;1.10;0.50;;;9.00;99.90;;;;;;4975588;28;20480;-70
2023/01/09 10:42:43;;;;;;;0.90;0.50;;;9.00;99.90;;;;;;4991973;28;20440;-70
2023/01/09 10:45:32;;;;;;;2.37;0.80;;;8.90;99.90;;;;;;4992067;28;20520;-70
2023/01/09 10:48:17;;;;;;;4.77;0.77;;;9.00;99.90;;;;;;4991973;28;20426;-70
2023/01/09 10:50:44;;;;;;;2.00;0.70;;;9.00;99.90;;;;;;4991801;28;20581;-70
2023/01/09 10:53:21;;;;;;;3.03;0.80;;;9.00;99.90;;;;;;4991757;28;20421;-70
2023/01/09 10:55:50;;;;;;;7.13;0.70;;;9.30;99.90;;;;;;4992039;28;20473;-70
2023/01/09 10:58:19;;;;;;;2.80;0.50;;;9.30;99.90;;;;;;4991738;28;20448;-70
2023/01/09 11:00:46;;;;;;;1.47;0.50;;;9.30;99.90;;;;;;4992461;28;20423;-70
2023/01/09 11:03:14;;;;;;;5.60;0.87;;;9.40;99.90;;;;;;4996127;28;20426;-71
2023/01/09 11:05:40;;;;;;;4.57;0.67;;;9.50;99.90;;;;;;4996005;28;20444;-71
2023/01/09 11:08:10;;;;;;;8.90;0.80;;;9.50;99.90;;;;;;4995981;28;20501;-71
2023/01/09 11:10:48;;;;;;;4.17;0.90;;;9.40;99.90;;;;;;4995792;28;20464;-69
2023/01/09 11:13:19;;;;;;;6.10;0.70;;;9.60;99.90;;;;;;4995649;28;20508;-70
2023/01/09 11:15:45;;;;;;;2.53;0.70;;;9.50;99.90;;;;;;4996170;28;20412;-71
2023/01/09 11:18:23;;;;;;;1.53;0.70;;;9.40;99.90;;;;;;4996641;28;20394;-70
2023/01/09 11:20:50;;;;;;;2.13;0.60;;;9.20;99.90;;;;;;4996397;28;20177;-71
2023/01/09 11:23:31;;;;;;;1.10;0.90;;;9.20;99.90;;;;;;4996848;28;20497;-70
2023/01/09 11:25:59;;;;;;;4.53;1.33;;;9.20;99.90;;;;;;4979466;28;20420;-70
2023/01/09 11:28:25;;;;;;;3.63;0.63;;;9.20;99.90;;;;;;4997054;28;20419;-72
2023/01/09 11:30:54;;;;;;;2.23;0.70;;;9.30;99.90;;;;;;4996776;28;20408;-72
2023/01/09 11:33:27;;;;;;;2.97;1.00;;;9.60;99.90;;;;;;4996072;28;20182;-71
2023/01/09 11:36:09;;;;;;;2.53;0.77;;;10.00;99.90;;;;;;4977972;28;20479;-70
2023/01/09 11:38:50;;;;;;;6.50;0.60;;;10.40;99.90;;;;;;4995716;28;20449;-70
2023/01/09 11:41:19;;;;;;;1.87;0.80;;;10.90;99.90;;;;;;4995194;28;20461;-70
2023/01/09 11:43:47;;;;;;;1.43;0.70;;;11.40;99.90;;;;;;4995605;28;20761;-71
2023/01/09 11:46:29;;;;;;;2.87;0.73;;;11.50;99.90;;;;;;4995443;28;20469;-71
2023/01/09 11:48:56;;;;;;;3.17;1.37;;;11.40;99.90;;;;;;4995455;28;20557;-70
2023/01/09 11:51:24;;;;;;;1.43;0.70;;;11.40;99.90;;;;;;4994926;28;20433;-71
2023/01/09 11:54:25;;;;;;;1.20;0.70;;;11.40;99.90;;;;;;4995240;28;20429;-70
2023/01/09 11:56:51;;;;;;;4.10;0.60;;;11.50;99.90;;;;;;4995235;28;20420;-70
2023/01/09 11:59:20;;;;;;;2.17;0.60;;;11.40;99.90;;;;;;4995093;28;20414;-70
2023/01/09 12:01:51;;;;;;;4.60;0.73;;;11.30;99.90;;;;;;4994921;28;20439;-70
2023/01/09 12:04:34;;;;;;;4.07;0.70;;;11.30;99.90;;;;;;4995109;28;20461;-70
2023/01/09 12:07:24;;;;;;;1.13;0.60;;;11.40;99.90;;;;;;4995104;28;20426;-70
2023/01/09 12:10:05;;;;;;;2.00;0.60;;;11.20;99.90;;;;;;4995023;28;20946;-71
2023/01/09 12:12:51;;;;;;;2.20;0.60;;;11.10;99.90;;;;;;4994474;28;20438;-71
2023/01/09 12:15:52;;;;;;;2.40;0.60;;;11.10;99.90;;;;;;4995421;28;20444;-71
2023/01/09 12:18:55;;;;;;;5.93;0.80;;;10.80;99.90;;;;;;4964473;28;20423;-71
2023/01/09 12:21:32;;;;;;;1.83;0.70;;;10.70;99.90;;;;;;4994792;28;20434;-71
2023/01/09 12:24:24;;;;;;;2.33;1.43;;;10.60;99.90;;;;;;4995247;28;20420;-70
2023/01/09 12:27:07;;;;;;;3.40;0.80;;;10.40;99.90;;;;;;4994751;28;20421;-71
2023/01/09 12:30:10;;;;;;;4.13;0.70;;;10.30;99.90;;;;;;4994546;28;20453;-71
2023/01/09 12:32:44;;;;;;;7.00;0.90;;;10.00;99.90;;;;;;4994197;28;20902;-71
2023/01/09 12:35:39;;;;;;;2.20;0.60;;;9.80;99.90;;;;;;4994697;28;20897;-70
2023/01/09 12:39:00;;;;;;;3.63;0.90;;;9.50;99.90;;;;;;4994683;28;20936;-71
2023/01/09 12:41:57;;;;;;;4.77;0.80;;;9.30;99.90;;;;;;4950699;28;21085;-70
2023/01/09 12:44:29;;;;;;;6.03;0.80;;;9.20;99.90;;;;;;4994169;28;20425;-70
2023/01/09 12:47:08;;;;;;;3.97;1.07;;;9.10;99.90;;;;;;4994473;28;20421;-71
2023/01/09 12:49:48;;;;;;;2.00;0.60;;;9.20;99.90;;;;;;4994049;28;20469;-71
2023/01/09 12:52:22;;;;;;;1.97;0.70;;;9.20;99.90;;;;;;4994184;28;20525;-70
2023/01/09 12:55:21;;;;;;;1.10;0.60;;;9.10;99.90;;;;;;4994167;28;20482;-70
2023/01/09 12:57:53;;;;;;;2.30;0.70;;;9.20;99.90;;;;;;4994337;28;20417;-71
2023/01/09 13:00:36;;;;;;;7.77;1.00;;;9.20;99.90;;;;;;4994238;28;20409;-71
2023/01/09 13:03:12;;;;;;;2.10;0.60;;;9.10;99.90;;;;;;4994081;28;20921;-70
2023/01/09 13:05:41;;;;;;;3.07;0.60;;;9.10;99.90;;;;;;4994065;28;20913;-71
2023/01/09 13:08:19;;;;;;;0.93;0.50;;;9.10;99.90;;;;;;4994237;28;20471;-70
2023/01/09 13:10:49;;;;;;;0.90;0.50;;;9.00;99.90;;;;;;4993889;28;20556;-70
2023/01/09 13:13:27;;;;;;;2.23;0.70;;;9.10;99.90;;;;;;4993804;28;20421;-71
2023/01/09 13:15:57;;;;;;;7.17;0.70;;;9.10;99.90;;;;;;4994072;28;20405;-71
2023/01/09 13:18:39;;;;;;;4.53;0.50;;;9.20;99.90;;;;;;4993778;28;20426;-71
2023/01/09 13:21:06;;;;;;;2.27;1.13;;;9.20;99.90;;;;;;4993430;28;20434;-69
2023/01/09 13:23:51;;;;;;;4.90;0.60;;;9.20;99.90;;;;;;4993233;28;20429;-71
2023/01/09 13:26:21;;;;;;;3.23;0.60;;;9.20;99.90;;;;;;4993989;28;20513;-70
2023/01/09 13:29:17;;;;;;;1.00;0.50;;;9.10;99.90;;;;;;4992759;28;21040;-71
2023/01/09 13:31:46;;;;;;;1.77;0.50;;;9.00;99.90;;;;;;4993186;28;20454;-71
2023/01/09 13:34:20;;;;;;;0.60;0.60;;;9.00;99.90;;;;;;4993655;28;20424;-70
2023/01/09 13:36:49;;;;;;;1.80;0.40;;;9.00;99.90;;;;;;4993731;28;20420;-71
2023/01/09 13:39:24;;;;;;;0.67;0.50;;;9.00;99.90;;;;;;4993111;28;20941;-71
2023/01/09 13:44:39;;;;;;;1.77;0.47;;;9.10;99.90;;;;;;4993405;28;20428;-71
2023/01/09 13:47:12;;;;;;;0.50;0.50;;;9.00;99.90;;;;;;4993138;28;20831;-71
2023/01/09 13:49:41;;;;;;;1.37;0.47;;;9.00;99.90;;;;;;4992935;28;20620;-71
2023/01/09 13:52:32;;;;;;;1.17;0.50;;;8.80;99.90;;;;;;4992748;28;20430;-71
2023/01/09 13:54:57;;;;;;;1.13;0.50;;;8.60;99.90;;;;;;4992987;28;20458;-71
2023/01/09 13:57:34;;;;;;;0.70;0.40;;;8.50;99.90;;;;;;4992879;28;20830;-72
2023/01/09 14:00:06;;;;;;;3.67;0.50;;;8.30;99.90;;;;;;4993023;28;20173;-71
2023/01/09 14:02:35;;;;;;;1.80;0.50;;;8.10;99.90;;;;;;4992469;28;20440;-71
2023/01/09 14:05:02;;;;;;;2.10;0.50;;;7.90;99.90;;;;;;4992723;28;20491;-71
2023/01/09 14:07:49;;;;;;;3.80;0.50;;;7.80;99.90;;;;;;4992578;28;20415;-71
2023/01/09 14:10:42;;;;;;;6.63;0.57;;;7.80;99.90;;;;;;4993434;28;20463;-71
2023/01/09 14:13:14;;;;;;;1.23;0.60;;;7.90;99.90;;;;;;4993490;28;20411;-71
2023/01/09 14:15:43;;;;;;;0.40;0.40;;;7.90;99.90;;;;;;4992616;28;20425;-71
2023/01/09 14:18:37;;;;;;;3.40;0.63;;;7.90;99.90;;;;;;4992513;28;20761;-71
2023/01/09 14:21:06;;;;;;;1.40;0.50;;;7.90;99.90;;;;;;4989459;28;20455;-69
2023/01/09 14:23:39;;;;;;;1.80;0.60;;;7.90;99.90;;;;;;5004708;28;20484;-71
2023/01/09 14:26:14;;;;;;;2.03;0.50;;;7.90;99.90;;;;;;5011872;28;20418;-71
2023/01/09 14:28:40;;;;;;;0.70;0.50;;;7.90;99.90;;;;;;5011766;28;20527;-71
2023/01/09 14:31:08;;;;;;;0.90;0.60;;;7.90;99.90;;;;;;5011443;28;20532;-71
2023/01/09 14:33:34;;;;;;;1.63;0.50;;;7.90;99.90;;;;;;5011074;28;20203;-71
2023/01/09 14:36:20;;;;;;;3.40;0.50;;;7.90;99.90;;;;;;5010697;28;20419;-71
2023/01/09 14:38:58;;;;;;;1.27;0.43;;;7.80;99.90;;;;;;4993762;28;20996;-71
2023/01/09 14:44:57;;;;;;;1.20;0.43;;;7.70;99.90;;;;;;5002955;28;20443;-70
2023/01/09 14:47:38;;;;;;;0.80;0.40;;;7.70;99.90;;;;;;5005005;28;20416;-71
2023/01/09 14:50:33;;;;;;;0.53;0.40;;;7.60;99.90;;;;;;4992067;28;20489;-71
2023/01/09 14:53:12;;;;;;;0.50;0.50;;;7.50;99.90;;;;;;4991720;28;20767;-69
2023/01/09 14:56:00;;;;;;;1.07;0.50;;;7.50;99.90;;;;;;4991691;28;20428;-70
2023/01/09 14:58:33;;;;;;;0.40;0.40;;;7.30;99.90;;;;;;4990623;28;20409;-70
2023/01/09 15:01:07;;;;;;;0.50;0.50;;;7.30;99.90;;;;;;5008245;28;20795;-70
2023/01/09 15:03:45;;;;;;;2.00;0.50;;;7.30;99.90;;;;;;5011457;28;20420;-70
2023/01/09 15:06:18;;;;;;;1.47;0.40;;;7.20;99.90;;;;;;5008373;28;20410;-70
2023/01/09 15:08:45;;;;;;;0.50;0.43;;;7.20;99.90;;;;;;4991480;28;20420;-70